Time;durP1;ratioP1;P1;durP2;ratioP2;P2;SDS_P1;SDS_P2;PMS_P1;PMS_P2;Temp;Humidity;BMP_temperature;BMP_pressure;BME280_temperature;BME280_humidity;BME280_pressure;Samples;Min_cycle;Max_cycle;Signal;HPM_P1;HPM_P2
2023/02/20 00:00:15;;;;;;;;;;;;;;;4.19;70.67;101142.95;107458;1257;61250;-87
2023/02/20 00:03:05;;;;;;;;;;;;;;;4.23;70.69;101144.36;107281;1257;124822;-88
2023/02/20 00:05:35;;;;;;;;;;;;;;;4.26;70.59;101132.56;107410;1256;66917;-87
2023/02/20 00:08:17;;;;;;;;;;;;;;;4.30;70.59;101130.01;107277;1256;126584;-87
2023/02/20 00:11:17;;;;;;;;;;;;;;;4.35;70.58;101129.07;107427;1256;61002;-87
2023/02/20 00:13:45;;;;;;;;;;;;;;;4.39;70.36;101128.08;107420;1256;124784;-86
2023/02/20 00:16:12;;;;;;;;;;;;;;;4.40;70.24;101121.89;107356;1256;75201;-86
2023/02/20 00:18:42;;;;;;;;;;;;;;;4.39;70.14;101118.18;107336;1256;67623;-88
2023/02/20 00:21:10;;;;;;;;;;;;;;;4.35;70.11;101112.89;107214;1256;124087;-85
2023/02/20 00:23:43;;;;;;;;;;;;;;;4.30;70.10;101109.02;107565;1256;61276;-85
2023/02/20 00:26:11;;;;;;;;;;;;;;;4.24;69.98;101106.23;107629;1256;124077;-85
2023/02/20 00:28:38;;;;;;;;;;;;;;;4.20;70.05;101103.02;107649;1256;73708;-85
2023/02/20 00:31:07;;;;;;;;;;;;;;;4.15;70.04;101097.89;107571;1256;124167;-85
2023/02/20 00:33:35;;;;;;;;;;;;;;;4.10;70.19;101099.00;108568;1257;73228;-85
2023/02/20 00:36:02;;;;;;;;;;;;;;;4.04;70.11;101101.42;107879;1256;60929;-86
2023/02/20 00:38:37;;;;;;;;;;;;;;;3.98;70.08;101103.52;107657;1256;124661;-85
2023/02/20 00:41:04;;;;;;;;;;;;;;;3.96;70.01;101108.77;107746;1256;75368;-85
2023/02/20 00:43:35;;;;;;;;;;;;;;;3.93;70.17;101113.48;108646;1256;125227;-84
2023/02/20 00:46:02;;;;;;;;;;;;;;;3.89;70.20;101119.84;108309;1257;73282;-85
2023/02/20 00:48:29;;;;;;;;;;;;;;;3.89;70.21;101124.56;107432;1257;61337;-83
2023/02/20 00:50:56;;;;;;;;;;;;;;;3.94;70.32;101119.98;107475;1256;124343;-86
2023/02/20 00:53:26;;;;;;;;;;;;;;;4.01;70.54;101123.15;107487;1262;74490;-82
2023/02/20 00:55:53;;;;;;;;;;;;;;;4.11;70.47;101111.73;107487;1262;124090;-81
2023/02/20 00:58:20;;;;;;;;;;;;;;;4.20;70.54;101105.64;107566;1256;72703;-82
2023/02/20 01:00:49;;;;;;;;;;;;;;;4.27;70.46;101105.50;107321;1256;60448;-82
2023/02/20 01:03:16;;;;;;;;;;;;;;;4.33;70.49;101104.46;107312;1257;123891;-82
2023/02/20 01:05:50;;;;;;;;;;;;;;;4.39;70.18;101108.44;107560;1259;74684;-82
2023/02/20 01:08:19;;;;;;;;;;;;;;;4.43;70.19;101113.01;107624;1260;124448;-82
2023/02/20 01:10:46;;;;;;;;;;;;;;;4.47;70.03;101118.98;107562;1256;71419;-82
2023/02/20 01:13:18;;;;;;;;;;;;;;;4.52;70.00;101122.70;107495;1257;124432;-85
2023/02/20 01:15:45;;;;;;;;;;;;;;;4.55;69.91;101125.14;107313;1260;62078;-86
2023/02/20 01:18:18;;;;;;;;;;;;;;;4.57;69.86;101117.44;107245;1257;74951;-85
2023/02/20 01:20:58;;;;;;;;;;;;;;;4.60;69.81;101116.17;107473;1256;124735;-85
2023/02/20 01:23:33;;;;;;;;;;;;;;;4.63;69.64;101106.83;107342;1256;72361;-85
2023/02/20 01:26:01;;;;;;;;;;;;;;;4.67;69.59;101094.67;107027;1257;125106;-85
2023/02/20 01:28:42;;;;;;;;;;;;;;;4.70;69.47;101086.33;107240;1257;61195;-85
2023/02/20 01:31:10;;;;;;;;;;;;;;;4.73;69.37;101084.59;107293;1256;124317;-86
2023/02/20 01:33:44;;;;;;;;;;;;;;;4.76;69.36;101085.91;107330;1259;67028;-85
2023/02/20 01:36:12;;;;;;;;;;;;;;;4.76;69.25;101086.30;107283;1256;73262;-85
2023/02/20 01:38:39;;;;;;;;;;;;;;;4.77;69.19;101088.94;108086;1257;123846;-85
2023/02/20 01:41:07;;;;;;;;;;;;;;;4.76;69.12;101094.65;107366;1257;60403;-85
2023/02/20 01:43:36;;;;;;;;;;;;;;;4.75;69.07;101096.48;107140;1257;124020;-85
2023/02/20 01:46:22;;;;;;;;;;;;;;;4.73;69.00;101090.31;107446;1257;65708;-86
2023/02/20 01:48:49;;;;;;;;;;;;;;;4.71;69.13;101081.34;107491;1256;71399;-84
2023/02/20 01:51:16;;;;;;;;;;;;;;;4.70;69.07;101076.02;107392;1257;124247;-85
2023/02/20 01:53:44;;;;;;;;;;;;;;;4.65;69.11;101072.16;107404;1261;61190;-84
2023/02/20 01:56:12;;;;;;;;;;;;;;;4.61;69.11;101066.90;107152;1256;123847;-84
2023/02/20 01:58:46;;;;;;;;;;;;;;;4.56;69.17;101060.73;107364;1257;65782;-85
2023/02/20 02:01:13;;;;;;;;;;;;;;;4.53;69.15;101060.89;107238;1256;124006;-85
2023/02/20 02:03:42;;;;;;;;;;;;;;;4.48;69.06;101059.42;107473;1257;60086;-86
2023/02/20 02:06:10;;;;;;;;;;;;;;;4.42;69.03;101054.90;107453;1257;60267;-86
2023/02/20 02:08:37;;;;;;;;;;;;;;;4.34;69.09;101045.79;107182;1257;124582;-85
2023/02/20 02:11:05;;;;;;;;;;;;;;;4.27;69.10;101045.23;107456;1256;65918;-84
2023/02/20 02:13:35;;;;;;;;;;;;;;;4.19;69.07;101042.88;107267;1257;124871;-84
2023/02/20 02:16:22;;;;;;;;;;;;;;;4.11;69.23;101030.12;107368;1257;61945;-86
2023/02/20 02:18:52;;;;;;;;;;;;;;;4.07;69.29;101027.65;107531;1260;62336;-87
2023/02/20 02:21:40;;;;;;;;;;;;;;;4.02;69.35;101020.08;107310;1257;124476;-86
2023/02/20 02:24:07;;;;;;;;;;;;;;;3.97;69.56;101026.05;107227;1257;67416;-85
2023/02/20 02:26:52;;;;;;;;;;;;;;;3.96;69.71;101023.88;107801;1257;125052;-84
2023/02/20 02:29:22;;;;;;;;;;;;;;;3.96;69.73;101021.98;107975;1256;61237;-86
2023/02/20 02:31:55;;;;;;;;;;;;;;;3.96;69.71;101027.16;107554;1257;124538;-86
2023/02/20 02:34:50;;;;;;;;;;;;;;;3.95;69.90;101029.21;107741;1257;73345;-86
2023/02/20 02:37:18;;;;;;;;;;;;;;;3.96;69.94;101027.36;107236;1256;125084;-85
2023/02/20 02:40:07;;;;;;;;;;;;;;;3.95;69.94;101020.90;107221;1256;73266;-86
2023/02/20 02:42:42;;;;;;;;;;;;;;;3.95;69.99;101022.62;107183;1257;61288;-85
2023/02/20 02:45:22;;;;;;;;;;;;;;;3.96;70.09;101017.33;107141;1256;125953;-86
2023/02/20 02:47:50;;;;;;;;;;;;;;;3.98;70.05;101019.86;107300;1256;75205;-86
2023/02/20 02:50:18;;;;;;;;;;;;;;;3.99;70.06;101021.98;107213;1256;124631;-86
2023/02/20 02:52:48;;;;;;;;;;;;;;;3.99;70.10;101021.44;107216;1257;72399;-83
2023/02/20 02:55:19;;;;;;;;;;;;;;;3.98;70.21;101013.59;107185;1257;124835;-83
2023/02/20 02:57:46;;;;;;;;;;;;;;;3.98;70.09;101012.72;107613;1262;59385;-83
2023/02/20 03:00:18;;;;;;;;;;;;;;;3.98;70.28;101012.38;107355;1260;73814;-82
2023/02/20 03:02:51;;;;;;;;;;;;;;;4.00;70.29;101004.14;107130;1256;124360;-82
2023/02/20 03:05:21;;;;;;;;;;;;;;;4.00;70.22;101000.52;107386;1256;71404;-82
2023/02/20 03:07:51;;;;;;;;;;;;;;;3.99;70.16;100999.75;107369;1257;124084;-82
2023/02/20 03:10:30;;;;;;;;;;;;;;;3.97;70.17;100997.21;107465;1262;59503;-82
2023/02/20 03:12:58;;;;;;;;;;;;;;;3.94;70.09;100994.96;107333;1257;124576;-83
2023/02/20 03:15:33;;;;;;;;;;;;;;;3.91;70.10;100995.63;107474;1261;67400;-83
2023/02/20 03:18:09;;;;;;;;;;;;;;;3.87;70.15;100995.44;107274;1256;70633;-87
2023/02/20 03:20:47;;;;;;;;;;;;;;;3.83;70.10;100988.27;107005;1257;124418;-87
2023/02/20 03:23:22;;;;;;;;;;;;;;;3.78;70.24;100978.27;107132;1257;60936;-86
2023/02/20 03:25:52;;;;;;;;;;;;;;;3.73;70.39;100978.67;107082;1256;124463;-86
2023/02/20 03:28:21;;;;;;;;;;;;;;;3.68;70.40;100972.00;107187;1257;67071;-87
2023/02/20 03:30:49;;;;;;;;;;;;;;;3.64;70.49;100971.93;107240;1256;71435;-86
2023/02/20 03:44:42;;;;;;;;;;;;;;;3.43;71.04;100970.58;107717;1257;125163;-86
2023/02/20 03:47:09;;;;;;;;;;;;;;;3.38;71.11;100977.89;107388;1260;60074;-85
2023/02/20 03:49:37;;;;;;;;;;;;;;;3.33;71.32;100976.40;107778;1257;124909;-86
2023/02/20 03:52:12;;;;;;;;;;;;;;;3.25;71.17;100978.56;107574;1262;73415;-86
2023/02/20 03:54:39;;;;;;;;;;;;;;;3.21;71.37;100982.67;107740;1256;67106;-81
2023/02/20 03:57:11;;;;;;;;;;;;;;;3.15;71.52;100984.92;108754;1256;125143;-81
2023/02/20 03:59:42;;;;;;;;;;;;;;;3.10;71.56;100976.81;108915;1257;59203;-81
2023/02/20 04:02:14;;;;;;;;;;;;;;;3.05;71.73;100977.91;108286;1257;125272;-81
2023/02/20 04:04:43;;;;;;;;;;;;;;;3.02;71.62;100976.35;107875;1256;75273;-81
2023/02/20 04:07:14;;;;;;;;;;;;;;;2.99;71.78;100973.56;107633;1257;123969;-80
2023/02/20 04:09:42;;;;;;;;;;;;;;;2.98;71.89;100970.20;107753;1256;72070;-81
2023/02/20 04:12:23;;;;;;;;;;;;;;;3.00;72.22;100964.09;107796;1256;61105;-80
2023/02/20 04:14:51;;;;;;;;;;;;;;;2.99;72.21;100956.27;107521;1256;124376;-81
2023/02/20 04:17:20;;;;;;;;;;;;;;;2.96;72.10;100953.64;108447;1257;74878;-81
2023/02/20 04:19:47;;;;;;;;;;;;;;;2.89;72.05;100950.67;108876;1257;124466;-81
2023/02/20 04:22:17;;;;;;;;;;;;;;;2.84;72.08;100949.15;108097;1256;73136;-81
2023/02/20 04:24:49;;;;;;;;;;;;;;;2.79;72.26;100942.05;107786;1262;59294;-81
2023/02/20 04:27:22;;;;;;;;;;;;;;;2.73;72.41;100933.59;107742;1257;123878;-81
2023/02/20 04:29:49;;;;;;;;;;;;;;;2.68;72.33;100923.95;108852;1257;74668;-84
2023/02/20 04:32:16;;;;;;;;;;;;;;;2.62;72.37;100913.38;108827;1256;123790;-81
2023/02/20 04:34:44;;;;;;;;;;;;;;;2.58;72.41;100914.30;108860;1256;70518;-81
2023/02/20 04:37:14;;;;;;;;;;;;;;;2.54;72.66;100915.13;108853;1256;123901;-84
2023/02/20 04:39:41;;;;;;;;;;;;;;;2.51;72.70;100911.30;107906;1260;61432;-85
2023/02/20 04:42:08;;;;;;;;;;;;;;;2.46;72.55;100907.71;107347;1256;74710;-85
2023/02/20 04:44:43;;;;;;;;;;;;;;;2.43;72.68;100897.48;107263;1256;124126;-85
2023/02/20 04:47:14;;;;;;;;;;;;;;;2.39;72.83;100888.08;107311;1257;72345;-86
2023/02/20 04:49:42;;;;;;;;;;;;;;;2.36;72.93;100881.15;107309;1257;123829;-85
2023/02/20 04:52:09;;;;;;;;;;;;;;;2.34;72.84;100875.12;107490;1257;59636;-85
2023/02/20 04:54:36;;;;;;;;;;;;;;;2.32;73.02;100878.83;107778;1257;75160;-85
2023/02/20 04:57:03;;;;;;;;;;;;;;;2.33;73.24;100874.55;107780;1256;123949;-85
2023/02/20 04:59:31;;;;;;;;;;;;;;;2.33;73.19;100859.17;107812;1256;70389;-85
2023/02/20 05:01:59;;;;;;;;;;;;;;;2.35;73.28;100854.77;107550;1256;124511;-85
2023/02/20 05:04:29;;;;;;;;;;;;;;;2.40;73.30;100852.95;107667;1257;61607;-85
2023/02/20 05:07:03;;;;;;;;;;;;;;;2.46;73.48;100851.92;107348;1257;124713;-88
2023/02/20 05:09:31;;;;;;;;;;;;;;;2.53;73.47;100843.34;107205;1256;67441;-88
2023/02/20 05:11:59;;;;;;;;;;;;;;;2.60;73.36;100836.84;107325;1257;71859;-84
2023/02/20 05:14:35;;;;;;;;;;;;;;;2.69;73.49;100829.89;107201;1256;124395;-89
2023/02/20 05:17:09;;;;;;;;;;;;;;;2.77;73.37;100825.20;107275;1257;61095;-89
2023/02/20 05:19:36;;;;;;;;;;;;;;;2.85;73.25;100816.63;107144;1256;124728;-89
2023/02/20 05:22:17;;;;;;;;;;;;;;;2.91;73.38;100806.90;107247;1256;67049;-88
2023/02/20 05:24:55;;;;;;;;;;;;;;;2.98;73.27;100801.04;107187;1257;73808;-84
2023/02/20 05:27:27;;;;;;;;;;;;;;;3.02;73.19;100801.27;107461;1257;61630;-85
2023/02/20 05:30:03;;;;;;;;;;;;;;;3.08;73.11;100800.55;106988;1261;60956;-84
2023/02/20 05:32:30;;;;;;;;;;;;;;;3.15;73.15;100797.96;107259;1260;124783;-85
2023/02/20 05:34:58;;;;;;;;;;;;;;;3.19;73.01;100782.43;107379;1262;67115;-84
2023/02/20 05:37:35;;;;;;;;;;;;;;;3.22;72.89;100771.52;107396;1256;125043;-83
2023/02/20 05:40:02;;;;;;;;;;;;;;;3.26;73.00;100764.42;107383;1260;61157;-85
2023/02/20 05:42:29;;;;;;;;;;;;;;;3.28;72.88;100766.30;107380;1256;60238;-82
2023/02/20 05:45:09;;;;;;;;;;;;;;;3.32;72.95;100765.45;107023;1256;123848;-85
2023/02/20 05:47:38;;;;;;;;;;;;;;;3.34;72.94;100762.77;107050;1257;65757;-85
2023/02/20 05:50:05;;;;;;;;;;;;;;;3.35;72.97;100763.35;107395;1257;123903;-81
2023/02/20 05:52:32;;;;;;;;;;;;;;;3.34;72.99;100759.14;107315;1257;61717;-81
2023/02/20 05:54:59;;;;;;;;;;;;;;;3.34;73.02;100747.86;107542;1260;124541;-81
2023/02/20 05:57:27;;;;;;;;;;;;;;;3.35;73.04;100744.99;108329;1257;74688;-82
2023/02/20 05:59:54;;;;;;;;;;;;;;;3.36;73.22;100737.55;108992;1257;65045;-81
2023/02/20 06:02:22;;;;;;;;;;;;;;;3.33;73.07;100734.14;107855;1256;123809;-82
2023/02/20 06:04:50;;;;;;;;;;;;;;;3.34;73.23;100726.52;107378;1257;60045;-87
2023/02/20 06:07:25;;;;;;;;;;;;;;;3.35;73.29;100719.47;107406;1256;124686;-84
2023/02/20 06:09:52;;;;;;;;;;;;;;;3.34;73.19;100704.33;107433;1257;73371;-84
2023/02/20 06:12:19;;;;;;;;;;;;;;;3.33;73.26;100697.89;107385;1257;67281;-83
2023/02/20 06:15:07;;;;;;;;;;;;;;;3.33;73.33;100691.77;106996;1259;124774;-85
2023/02/20 06:17:38;;;;;;;;;;;;;;;3.34;73.47;100677.45;107541;1257;60896;-85
2023/02/20 06:20:05;;;;;;;;;;;;;;;3.33;73.47;100674.96;107470;1260;125165;-84
2023/02/20 06:22:35;;;;;;;;;;;;;;;3.32;73.65;100686.37;107171;1262;75260;-84
2023/02/20 06:25:22;;;;;;;;;;;;;;;3.34;73.66;100677.61;107358;1257;125182;-83
2023/02/20 06:27:50;;;;;;;;;;;;;;;3.37;73.71;100667.04;107437;1256;72752;-84
2023/02/20 06:30:17;;;;;;;;;;;;;;;3.39;73.78;100669.73;107318;1257;61368;-82
2023/02/20 06:32:54;;;;;;;;;;;;;;;3.39;73.74;100660.21;107400;1257;124558;-85
2023/02/20 06:35:28;;;;;;;;;;;;;;;3.40;73.78;100655.73;107876;1256;75558;-83
2023/02/20 06:37:57;;;;;;;;;;;;;;;3.38;73.82;100650.92;107658;1262;124266;-85
2023/02/20 06:40:25;;;;;;;;;;;;;;;3.35;73.66;100634.66;107604;1256;72787;-87
2023/02/20 06:42:54;;;;;;;;;;;;;;;3.34;73.59;100622.64;107227;1262;60691;-83
2023/02/20 06:45:33;;;;;;;;;;;;;;;3.33;73.83;100611.33;107215;1258;123631;-86
2023/02/20 06:48:01;;;;;;;;;;;;;;;3.34;73.89;100610.85;107618;1262;73085;-87
2023/02/20 06:53:37;;;;;;;;;;;;;;;3.30;73.81;100616.89;107306;1260;72646;-86
2023/02/20 06:56:14;;;;;;;;;;;;;;;3.28;74.03;100604.13;107151;1257;124554;-86
2023/02/20 06:58:49;;;;;;;;;;;;;;;3.27;74.04;100600.63;107100;1258;61251;-86
2023/02/20 07:01:19;;;;;;;;;;;;;;;3.25;73.97;100601.23;107057;1257;124610;-86
2023/02/20 07:03:56;;;;;;;;;;;;;;;3.24;74.21;100594.40;107194;1262;67441;-86
2023/02/20 07:06:23;;;;;;;;;;;;;;;3.23;74.08;100594.52;107324;1260;70998;-87
2023/02/20 07:08:50;;;;;;;;;;;;;;;3.22;74.31;100596.52;107043;1262;124465;-86
2023/02/20 07:11:50;;;;;;;;;;;;;;;3.23;74.23;100590.48;107414;1257;61056;-85
2023/02/20 07:17:41;;;;;;;;;;;;;;;3.20;74.30;100568.88;107500;1257;67435;-86
2023/02/20 07:20:15;;;;;;;;;;;;;;;3.21;74.52;100562.29;107318;1258;123893;-82
2023/02/20 07:22:55;;;;;;;;;;;;;;;3.20;74.39;100551.00;107410;1258;61231;-86
2023/02/20 07:25:35;;;;;;;;;;;;;;;3.17;74.46;100535.05;107417;1256;124111;-85
2023/02/20 07:28:03;;;;;;;;;;;;;;;3.13;74.52;100525.48;107508;1262;74771;-82
2023/02/20 07:30:30;;;;;;;;;;;;;;;3.09;74.51;100518.89;107896;1256;65659;-82
2023/02/20 07:32:57;;;;;;;;;;;;;;;3.08;74.55;100505.81;107561;1258;124764;-82
2023/02/20 07:35:28;;;;;;;;;;;;;;;3.08;74.77;100495.44;107750;1259;59555;-82
2023/02/20 07:37:55;;;;;;;;;;;;;;;3.07;74.71;100483.40;107375;1257;125815;-85
2023/02/20 07:40:22;;;;;;;;;;;;;;;3.07;74.86;100471.98;107995;1260;74695;-86
2023/02/20 07:42:55;;;;;;;;;;;;;;;3.10;75.03;100459.63;107696;1256;65795;-86
2023/02/20 07:45:22;;;;;;;;;;;;;;;3.09;74.89;100452.30;107760;1258;125516;-86
2023/02/20 07:47:52;;;;;;;;;;;;;;;3.09;74.99;100443.48;108115;1256;60530;-86
2023/02/20 07:50:19;;;;;;;;;;;;;;;3.11;75.02;100438.90;108258;1256;124627;-86
2023/02/20 07:52:46;;;;;;;;;;;;;;;3.10;75.03;100443.19;108229;1256;74949;-86
2023/02/20 07:55:16;;;;;;;;;;;;;;;3.13;75.01;100424.05;107999;1260;125501;-82
2023/02/20 07:57:44;;;;;;;;;;;;;;;3.13;75.05;100415.05;108109;1257;72702;-86
2023/02/20 08:00:15;;;;;;;;;;;;;;;3.15;75.11;100416.87;108035;1258;59910;-82
2023/02/20 08:02:42;;;;;;;;;;;;;;;3.14;74.94;100400.70;107706;1260;124602;-82
2023/02/20 08:05:12;;;;;;;;;;;;;;;3.15;75.10;100386.71;108021;1257;73400;-86
2023/02/20 08:07:44;;;;;;;;;;;;;;;3.15;74.89;100373.19;107992;1260;124040;-86
2023/02/20 08:10:12;;;;;;;;;;;;;;;3.14;75.06;100358.41;108321;1257;71882;-86
2023/02/20 08:12:39;;;;;;;;;;;;;;;3.15;74.99;100350.29;108424;1255;60783;-87
2023/02/20 08:15:11;;;;;;;;;;;;;;;3.12;74.96;100347.74;107787;1257;124207;-87
2023/02/20 08:17:49;;;;;;;;;;;;;;;3.09;75.02;100339.80;107943;1258;75768;-86
2023/02/20 08:20:16;;;;;;;;;;;;;;;3.09;75.18;100339.46;108179;1263;124670;-86
2023/02/20 08:22:43;;;;;;;;;;;;;;;3.14;75.35;100340.39;108014;1256;72891;-86
2023/02/20 08:25:18;;;;;;;;;;;;;;;3.17;75.35;100332.72;107565;1260;125110;-86
2023/02/20 08:27:47;;;;;;;;;;;;;;;3.19;75.18;100324.65;107849;1257;60012;-86
2023/02/20 08:30:23;;;;;;;;;;;;;;;3.19;75.30;100316.52;107590;1260;73366;-86
2023/02/20 08:33:01;;;;;;;;;;;;;;;3.19;75.30;100316.68;107615;1260;124787;-86
2023/02/20 08:35:28;;;;;;;;;;;;;;;3.18;75.25;100300.18;108283;1257;72579;-86
2023/02/20 08:37:55;;;;;;;;;;;;;;;3.20;75.33;100281.56;108262;1258;124460;-82
2023/02/20 08:40:22;;;;;;;;;;;;;;;3.23;75.43;100270.77;107927;1259;61356;-82
2023/02/20 08:42:49;;;;;;;;;;;;;;;3.24;75.46;100263.84;107805;1260;74856;-82
2023/02/20 08:45:16;;;;;;;;;;;;;;;3.28;75.62;100253.31;107914;1260;124532;-86
2023/02/20 08:47:43;;;;;;;;;;;;;;;3.31;75.69;100232.98;108001;1258;71318;-86
2023/02/20 08:50:10;;;;;;;;;;;;;;;3.36;75.54;100219.51;107994;1256;124011;-86
2023/02/20 08:52:37;;;;;;;;;;;;;;;3.41;75.64;100202.19;108123;1258;59616;-86
2023/02/20 08:55:05;;;;;;;;;;;;;;;3.44;75.77;100195.74;108128;1255;75638;-86
2023/02/20 08:57:32;;;;;;;;;;;;;;;3.48;76.00;100185.17;107727;1258;124859;-87
2023/02/20 08:59:59;;;;;;;;;;;;;;;3.55;75.90;100166.55;108120;1257;72719;-86
2023/02/20 09:02:28;;;;;;;;;;;;;;;3.57;76.12;100120.51;108164;1258;124200;-86
2023/02/20 09:04:56;;;;;;;;;;;;;;;3.61;76.07;100065.52;108004;1260;61516;-87
2023/02/20 09:07:23;;;;;;;;;;;;;;;3.62;76.10;100053.73;107957;1259;124799;-86
2023/02/20 09:09:51;;;;;;;;;;;;;;;3.63;76.09;100084.85;108071;1256;65615;-86
2023/02/20 09:12:17;;;;;;;;;;;;;;;3.66;76.20;100098.14;107940;1256;73081;-86
2023/02/20 09:14:46;;;;;;;;;;;;;;;3.69;76.34;100084.08;108782;1258;124798;-86
2023/02/20 09:17:15;;;;;;;;;;;;;;;3.75;76.27;100078.77;108659;1258;284005;-87
2023/02/20 09:19:42;;;;;;;;;;;;;;;3.83;76.32;100068.48;108933;1257;124886;-86
2023/02/20 09:22:09;;;;;;;;;;;;;;;3.91;76.27;100065.86;109006;1256;65952;-87
2023/02/20 09:24:36;;;;;;;;;;;;;;;3.96;76.24;100076.80;108997;1257;72928;-86
2023/02/20 09:27:07;;;;;;;;;;;;;;;4.02;76.35;100059.74;108775;1258;124616;-87
2023/02/20 09:29:39;;;;;;;;;;;;;;;4.08;76.30;100038.44;107488;1258;61263;-87
2023/02/20 09:32:07;;;;;;;;;;;;;;;4.13;76.42;100038.97;107624;1258;124401;-87
2023/02/20 09:34:34;;;;;;;;;;;;;;;4.25;76.45;100024.84;107734;1259;67836;-86
2023/02/20 09:37:01;;;;;;;;;;;;;;;4.35;76.61;100013.77;107363;1257;72448;-87
2023/02/20 09:39:30;;;;;;;;;;;;;;;4.44;76.47;100016.18;107353;1260;124269;-87
2023/02/20 09:42:10;;;;;;;;;;;;;;;4.50;76.48;99997.30;107771;1257;61148;-87
2023/02/20 09:44:57;;;;;;;;;;;;;;;4.60;76.56;99982.20;107713;1257;124181;-87
2023/02/20 09:47:43;;;;;;;;;;;;;;;4.71;76.53;99982.77;107431;1260;67386;-87
2023/02/20 09:53:21;;;;;;;;;;;;;;;4.85;76.38;99986.95;107705;1258;60559;-87
2023/02/20 09:55:48;;;;;;;;;;;;;;;4.90;76.44;99979.98;107432;1261;124761;-87
2023/02/20 09:58:46;;;;;;;;;;;;;;;4.93;76.35;99966.88;107598;1255;73013;-87
2023/02/20 10:01:14;;;;;;;;;;;;;;;4.97;76.23;99955.70;107766;1255;124604;-86
2023/02/20 10:03:58;;;;;;;;;;;;;;;5.00;76.32;99952.70;108020;1256;73485;-87
2023/02/20 10:06:26;;;;;;;;;;;;;;;5.04;76.29;99944.64;107845;1258;59747;-87
2023/02/20 10:08:55;;;;;;;;;;;;;;;5.07;76.31;99937.61;107795;1257;124218;-87
2023/02/20 10:11:58;;;;;;;;;;;;;;;5.09;76.29;99945.34;107935;1255;74777;-85
2023/02/20 10:14:37;;;;;;;;;;;;;;;5.15;76.29;99936.84;107239;1267;124301;-86
2023/02/20 10:17:04;;;;;;;;;;;;;;;5.18;76.32;99948.60;107401;1264;70925;-86
2023/02/20 10:19:36;;;;;;;;;;;;;;;5.21;76.38;99955.32;107309;1264;125070;-86
2023/02/20 10:22:30;;;;;;;;;;;;;;;5.25;76.32;99947.29;107551;1265;60592;-86
2023/02/20 10:24:57;;;;;;;;;;;;;;;5.28;76.33;99919.88;107019;1263;74209;-85
2023/02/20 10:27:43;;;;;;;;;;;;;;;5.31;76.32;99914.59;107205;1263;123766;-86
2023/02/20 10:30:12;;;;;;;;;;;;;;;5.34;76.44;99895.19;107262;1263;72495;-86
2023/02/20 10:32:47;;;;;;;;;;;;;;;5.41;76.43;99886.73;107341;1263;124297;-86
2023/02/20 10:35:15;;;;;;;;;;;;;;;5.44;76.41;99875.16;107145;1264;61323;-85
2023/02/20 10:37:44;;;;;;;;;;;;;;;5.47;76.61;99866.88;107400;1263;124644;-86
2023/02/20 10:40:23;;;;;;;;;;;;;;;5.51;76.70;99851.71;107407;1264;65957;-86
2023/02/20 10:42:54;;;;;;;;;;;;;;;5.56;76.81;99845.77;107341;1263;72769;-86
2023/02/20 10:45:29;;;;;;;;;;;;;;;5.60;76.92;99848.66;108285;1263;124391;-86
2023/02/20 10:48:02;;;;;;;;;;;;;;;5.66;77.09;99833.54;107639;1263;61131;-86
2023/02/20 10:50:34;;;;;;;;;;;;;;;5.73;77.24;99833.06;107750;1257;124692;-86
2023/02/20 10:53:19;;;;;;;;;;;;;;;5.83;77.27;99826.38;108105;1262;67125;-85
2023/02/20 10:55:59;;;;;;;;;;;;;;;5.93;77.30;99809.27;108113;1255;124611;-86
2023/02/20 10:58:34;;;;;;;;;;;;;;;6.01;77.34;99798.19;107917;1261;61184;-85
2023/02/20 11:01:04;;;;;;;;;;;;;;;6.10;77.34;99784.33;107951;1257;59904;-85
2023/02/20 11:03:40;;;;;;;;;;;;;;;6.16;77.36;99775.60;107916;1257;124856;-86
2023/02/20 11:06:12;;;;;;;;;;;;;;;6.25;77.36;99772.87;107981;1258;65521;-86
2023/02/20 11:08:39;;;;;;;;;;;;;;;6.31;77.37;99772.89;107616;1257;125214;-86
2023/02/20 11:11:38;;;;;;;;;;;;;;;6.40;77.37;99766.15;107722;1257;60885;-86
2023/02/20 11:14:27;;;;;;;;;;;;;;;6.51;77.44;99768.85;107571;1257;124309;-86
2023/02/20 11:17:15;;;;;;;;;;;;;;;6.58;77.44;99752.66;107479;1257;73056;-86
2023/02/20 11:19:52;;;;;;;;;;;;;;;6.70;77.42;99752.60;107455;1257;124478;-86
2023/02/20 11:22:40;;;;;;;;;;;;;;;6.77;77.35;99751.89;107295;1259;73462;-86
2023/02/20 11:25:33;;;;;;;;;;;;;;;6.86;77.35;99750.35;107460;1256;60882;-86
2023/02/20 11:28:20;;;;;;;;;;;;;;;6.93;77.37;99745.83;107349;1257;61122;-85
2023/02/20 11:31:03;;;;;;;;;;;;;;;6.98;77.38;99748.39;107318;1260;75291;-86
2023/02/20 11:33:34;;;;;;;;;;;;;;;7.04;77.22;99741.36;107152;1257;124674;-86
2023/02/20 11:36:24;;;;;;;;;;;;;;;7.08;77.22;99726.80;107226;1256;72415;-86
2023/02/20 11:39:12;;;;;;;;;;;;;;;7.11;77.24;99711.36;107207;1258;125266;-86
2023/02/20 11:41:42;;;;;;;;;;;;;;;7.18;77.28;99712.71;107498;1257;60152;-86
2023/02/20 11:44:09;;;;;;;;;;;;;;;7.23;77.19;99706.55;107638;1256;124693;-85
2023/02/20 11:46:47;;;;;;;;;;;;;;;7.27;77.19;99700.18;107829;1257;67295;-85
2023/02/20 11:49:26;;;;;;;;;;;;;;;7.30;77.15;99707.58;107682;1256;72798;-86
2023/02/20 11:52:15;;;;;;;;;;;;;;;7.33;77.16;99699.77;107806;1257;59375;-86
2023/02/20 11:54:42;;;;;;;;;;;;;;;7.35;77.18;99693.73;107823;1260;60497;-86
2023/02/20 11:57:24;;;;;;;;;;;;;;;7.39;77.27;99687.52;107598;1257;124851;-86
2023/02/20 12:00:14;;;;;;;;;;;;;;;7.44;77.38;99679.92;107794;1257;68074;-86
2023/02/20 12:03:01;;;;;;;;;;;;;;;7.48;77.37;99676.88;107712;1256;124653;-86
2023/02/20 12:05:45;;;;;;;;;;;;;;;7.52;77.38;99678.70;107634;1260;59275;-86
2023/02/20 12:08:31;;;;;;;;;;;;;;;7.56;77.56;99680.55;107645;1256;124617;-86
2023/02/20 12:10:59;;;;;;;;;;;;;;;7.62;77.62;99652.88;107811;1257;75458;-82
2023/02/20 12:13:26;;;;;;;;;;;;;;;7.68;77.71;99650.38;107742;1256;124803;-82
2023/02/20 12:15:59;;;;;;;;;;;;;;;7.75;77.78;99645.80;108941;1257;72581;-82
2023/02/20 12:18:48;;;;;;;;;;;;;;;7.81;77.81;99638.41;108846;1257;60710;-82
2023/02/20 12:21:14;;;;;;;;;;;;;;;7.91;77.94;99641.20;108804;1257;124577;-82
2023/02/20 12:23:55;;;;;;;;;;;;;;;8.00;77.94;99636.46;109105;1257;72053;-82
2023/02/20 12:26:29;;;;;;;;;;;;;;;8.07;77.98;99632.23;108840;1256;125069;-82
2023/02/20 12:29:10;;;;;;;;;;;;;;;8.14;78.01;99626.23;107812;1257;73949;-82
2023/02/20 12:31:40;;;;;;;;;;;;;;;8.21;78.18;99620.39;107559;1257;124649;-81
2023/02/20 12:34:10;;;;;;;;;;;;;;;8.26;78.15;99611.91;107898;1260;61253;-81
2023/02/20 12:36:40;;;;;;;;;;;;;;;8.30;78.14;99605.14;107737;1257;73551;-81
2023/02/20 12:39:14;;;;;;;;;;;;;;;8.34;78.05;99599.63;107708;1257;124715;-81
2023/02/20 12:42:01;;;;;;;;;;;;;;;8.35;78.02;99593.52;107980;1258;72778;-81
2023/02/20 12:44:35;;;;;;;;;;;;;;;8.40;78.17;99584.18;107829;1257;125322;-82
2023/02/20 12:47:15;;;;;;;;;;;;;;;8.45;78.09;99578.85;107637;1257;62210;-81
2023/02/20 12:50:00;;;;;;;;;;;;;;;8.48;78.15;99564.55;107452;1257;124653;-81
2023/02/20 12:52:46;;;;;;;;;;;;;;;8.59;78.18;99564.70;107575;1257;65650;-81
2023/02/20 12:55:43;;;;;;;;;;;;;;;8.71;78.26;99558.75;107489;1257;73198;-81
2023/02/20 12:58:16;;;;;;;;;;;;;;;8.80;78.20;99546.97;107087;1264;59984;-81
2023/02/20 13:01:08;;;;;;;;;;;;;;;8.87;78.01;99541.98;107112;1263;60039;-81
2023/02/20 13:03:39;;;;;;;;;;;;;;;8.94;78.03;99539.45;106959;1267;124686;-81
2023/02/20 13:06:06;;;;;;;;;;;;;;;8.98;77.83;99543.86;107381;1263;68195;-81
2023/02/20 13:08:35;;;;;;;;;;;;;;;8.96;77.70;99546.30;107240;1264;124603;-81
2023/02/20 13:11:21;;;;;;;;;;;;;;;8.92;77.58;99538.20;107094;1266;60957;-81
2023/02/20 13:13:51;;;;;;;;;;;;;;;8.87;77.56;99550.73;106843;1263;124776;-81
2023/02/20 13:16:21;;;;;;;;;;;;;;;8.84;77.60;99552.79;106993;1265;74666;-82
2023/02/20 13:18:51;;;;;;;;;;;;;;;8.79;77.70;99562.35;106995;1265;67621;-85
2023/02/20 13:21:20;;;;;;;;;;;;;;;8.76;77.79;99561.09;107091;1264;124696;-86
2023/02/20 13:24:00;;;;;;;;;;;;;;;8.71;77.90;99558.75;107051;1264;61370;-86